Time;durP1;ratioP1;P1;durP2;ratioP2;P2;SDS_P1;SDS_P2;PMS_P1;PMS_P2;Temp;Humidity;BMP_temperature;BMP_pressure;BME280_temperature;BME280_humidity;BME280_pressure;Samples;Min_cycle;Max_cycle;Signal;HPM_P1;HPM_P2
2021/04/01 00:00:11;;;;;;;33.33;18.85;;;;;;;13.01;61.49;100910.78;1754406;80;21167;-59
2021/04/01 00:02:39;;;;;;;27.10;19.02;;;;;;;13.00;61.48;100913.55;1759654;80;21614;-59
2021/04/01 00:05:09;;;;;;;25.00;17.90;;;;;;;12.97;61.54;100914.62;1750747;80;21200;-59
2021/04/01 00:07:36;;;;;;;24.07;16.77;;;;;;;12.93;61.67;100909.73;1758130;81;21959;-59
2021/04/01 00:10:13;;;;;;;27.45;17.73;;;;;;;12.97;61.71;100904.55;1754707;81;21188;-59
2021/04/01 00:12:41;;;;;;;23.27;16.70;;;;;;;13.03;61.50;100902.73;1752907;81;21168;-59
2021/04/01 00:15:13;;;;;;;27.55;17.73;;;;;;;13.05;61.43;100896.00;1756206;81;21204;-59
2021/04/01 00:17:42;;;;;;;25.17;17.23;;;;;;;13.01;61.49;100892.75;1728887;81;21171;-59
2021/04/01 00:20:12;;;;;;;28.45;18.30;;;;;;;12.97;61.54;100893.98;1754869;81;21220;-59
2021/04/01 00:22:40;;;;;;;29.00;18.35;;;;;;;12.89;61.69;100881.88;1753819;81;21203;-59
2021/04/01 00:25:10;;;;;;;25.62;17.80;;;;;;;12.81;61.83;100879.39;1755394;81;21394;-59
2021/04/01 00:27:37;;;;;;;26.20;18.40;;;;;;;12.75;61.96;100876.41;1747864;80;21196;-59
2021/04/01 00:30:07;;;;;;;25.32;19.00;;;;;;;12.67;62.11;100868.27;1728069;81;21172;-59
2021/04/01 00:32:35;;;;;;;29.63;18.17;;;;;;;12.64;62.23;100870.66;1754979;81;21182;-59
2021/04/01 00:35:04;;;;;;;30.25;19.92;;;;;;;12.59;62.36;100868.42;1753299;81;21128;-59
2021/04/01 00:37:32;;;;;;;26.52;19.92;;;;;;;12.58;62.42;100869.86;1752202;81;21144;-59
2021/04/01 00:40:00;;;;;;;25.90;17.87;;;;;;;12.56;62.47;100869.98;1744318;81;21159;-59
2021/04/01 00:42:27;;;;;;;26.52;17.42;;;;;;;12.61;62.41;100870.94;1747160;81;21183;-59
2021/04/01 00:45:05;;;;;;;26.77;18.23;;;;;;;12.71;62.21;100864.41;1749930;81;21208;-59
2021/04/01 00:47:43;;;;;;;28.35;18.60;;;;;;;12.85;62.10;100864.62;1866728;76;22224;-60
2021/04/01 00:50:16;;;;;;;34.27;19.15;;;;;;;12.89;61.94;100869.50;1834443;75;21137;-60
2021/04/01 00:52:44;;;;;;;25.20;17.75;;;;;;;12.91;61.83;100857.49;1806151;77;21208;-60
2021/04/01 00:55:13;;;;;;;32.38;19.57;;;;;;;12.92;61.70;100857.37;1747683;80;21163;-60
2021/04/01 00:57:46;;;;;;;30.10;19.05;;;;;;;12.90;61.61;100854.52;1789639;79;21203;-60
2021/04/01 01:00:16;;;;;;;28.30;18.65;;;;;;;12.89;61.55;100847.55;1750142;79;21140;-60
2021/04/01 01:02:43;;;;;;;26.60;19.45;;;;;;;12.86;61.49;100845.15;1737088;78;21233;-60
2021/04/01 01:05:13;;;;;;;32.48;20.72;;;;;;;12.82;61.36;100846.72;1757174;79;21204;-60
2021/04/01 01:07:41;;;;;;;26.27;19.25;;;;;;;12.79;61.44;100839.53;1803803;77;21155;-60
2021/04/01 01:10:16;;;;;;;28.40;19.73;;;;;;;12.77;61.63;100825.62;1806585;78;21156;-59
2021/04/01 01:12:44;;;;;;;29.25;19.95;;;;;;;12.74;61.72;100830.69;1772093;79;21165;-58
2021/04/01 01:15:14;;;;;;;28.20;18.98;;;;;;;12.66;61.93;100826.98;1773953;80;21172;-58
2021/04/01 01:17:41;;;;;;;29.45;20.08;;;;;;;12.58;62.03;100825.81;1761287;79;21194;-55
2021/04/01 01:20:12;;;;;;;32.13;21.05;;;;;;;12.53;62.21;100823.20;1782565;79;21191;-55
2021/04/01 01:22:41;;;;;;;28.83;19.73;;;;;;;12.56;62.22;100821.14;1777889;78;21152;-56
2021/04/01 01:25:11;;;;;;;27.82;20.25;;;;;;;12.61;62.02;100816.33;1802458;78;21556;-55
2021/04/01 01:27:38;;;;;;;28.15;20.37;;;;;;;12.59;62.06;100818.72;1776247;78;21549;-55
2021/04/01 01:30:10;;;;;;;29.27;20.48;;;;;;;12.52;62.24;100822.83;1759039;79;21216;-55
2021/04/01 01:32:39;;;;;;;33.70;21.65;;;;;;;12.43;62.42;100814.69;1749244;80;21203;-55
2021/04/01 01:35:18;;;;;;;35.68;21.30;;;;;;;12.36;62.63;100813.52;1783143;78;21176;-55
2021/04/01 01:37:57;;;;;;;33.75;20.05;;;;;;;12.31;62.78;100814.38;1760571;79;21194;-56
2021/04/01 01:40:27;;;;;;;36.28;20.55;;;;;;;12.26;62.88;100815.23;1780171;78;22257;-56
2021/04/01 01:42:57;;;;;;;34.30;20.85;;;;;;;12.22;63.01;100811.14;1776044;78;21207;-56
2021/04/01 01:45:25;;;;;;;30.68;20.88;;;;;;;12.17;63.09;100811.53;1756761;80;21155;-56
2021/04/01 01:47:54;;;;;;;31.07;20.60;;;;;;;12.16;63.16;100807.70;1746888;80;21202;-56
2021/04/01 01:50:26;;;;;;;31.05;20.05;;;;;;;12.14;63.21;100804.31;1739844;80;21690;-56
2021/04/01 01:52:53;;;;;;;29.42;20.12;;;;;;;12.19;63.10;100799.55;1766610;80;21231;-57
2021/04/01 01:55:21;;;;;;;31.60;20.37;;;;;;;12.30;62.92;100801.30;1800471;78;21188;-57
2021/04/01 01:57:49;;;;;;;32.63;21.37;;;;;;;12.39;62.76;100799.22;1745567;80;21156;-56
2021/04/01 02:00:31;;;;;;;30.97;20.95;;;;;;;12.43;62.62;100800.17;1779147;79;21175;-57
2021/04/01 02:03:01;;;;;;;31.17;20.45;;;;;;;12.44;62.56;100799.23;1761327;79;21127;-56
2021/04/01 02:05:29;;;;;;;37.03;22.00;;;;;;;12.47;62.49;100795.97;1778736;79;21674;-57
2021/04/01 02:07:57;;;;;;;30.20;21.35;;;;;;;12.47;62.43;100789.37;1759834;80;21187;-56
2021/04/01 02:10:33;;;;;;;31.40;22.00;;;;;;;12.45;62.39;100786.37;1738709;80;21447;-56
2021/04/01 02:13:03;;;;;;;30.68;20.95;;;;;;;12.40;62.42;100787.23;1765378;80;21200;-56
2021/04/01 02:15:38;;;;;;;30.62;22.07;;;;;;;12.34;62.50;100786.42;1766126;80;21092;-56
2021/04/01 02:18:14;;;;;;;28.57;19.67;;;;;;;12.26;62.68;100779.12;1766930;78;21137;-56
2021/04/01 02:20:50;;;;;;;26.82;18.90;;;;;;;12.19;62.81;100785.86;1788242;78;21152;-56
2021/04/01 02:23:23;;;;;;;32.25;21.45;;;;;;;12.15;62.94;100786.22;1766699;80;21204;-57
2021/04/01 02:25:54;;;;;;;35.05;22.00;;;;;;;12.10;63.07;100777.84;1795008;77;21611;-56
2021/04/01 02:28:27;;;;;;;32.35;20.08;;;;;;;12.07;63.13;100777.62;1797340;78;21195;-56
2021/04/01 02:31:01;;;;;;;25.77;19.95;;;;;;;12.11;63.10;100780.36;1777495;79;21533;-56
2021/04/01 02:33:31;;;;;;;29.25;18.62;;;;;;;12.23;62.94;100782.00;1798655;78;21784;-56
2021/04/01 02:35:58;;;;;;;35.38;21.75;;;;;;;12.31;62.75;100775.28;1772522;79;21207;-57
2021/04/01 02:38:26;;;;;;;34.75;23.47;;;;;;;12.38;62.61;100769.86;1774626;79;21183;-56
2021/04/01 02:40:55;;;;;;;34.30;21.80;;;;;;;12.40;62.55;100777.98;1769989;79;21207;-57
2021/04/01 02:43:33;;;;;;;34.43;22.30;;;;;;;12.38;62.48;100775.14;1772431;79;21179;-56
2021/04/01 02:46:04;;;;;;;33.65;21.70;;;;;;;12.34;62.46;100778.97;1748781;80;21200;-56
2021/04/01 02:48:32;;;;;;;32.75;21.90;;;;;;;12.30;62.48;100782.34;1779049;78;21603;-56
2021/04/01 02:51:01;;;;;;;33.10;22.48;;;;;;;12.26;62.43;100785.72;1753045;78;21231;-56
2021/04/01 02:53:28;;;;;;;31.77;22.25;;;;;;;12.25;62.40;100782.73;1731533;78;21740;-57
2021/04/01 02:55:56;;;;;;;28.92;20.85;;;;;;;12.21;62.40;100783.93;1781570;78;21250;-57
2021/04/01 02:58:24;;;;;;;31.10;22.35;;;;;;;12.20;62.39;100789.33;1788868;78;21391;-56
2021/04/01 03:00:53;;;;;;;31.73;22.02;;;;;;;12.15;62.38;100789.69;1776137;78;21167;-56
2021/04/01 03:03:27;;;;;;;37.73;24.25;;;;;;;12.10;62.48;100796.30;1778819;79;21646;-57
2021/04/01 03:05:50;;;;;;;30.17;21.45;;;;;;;12.05;62.58;100789.61;1796170;77;21207;-56
2021/04/01 03:08:17;;;;;;;26.87;19.85;;;;;;;12.07;62.68;100778.94;1786791;78;21681;-59
2021/04/01 03:10:47;;;;;;;27.10;20.15;;;;;;;12.15;62.60;100778.31;1770654;80;21171;-56
2021/04/01 03:13:14;;;;;;;36.95;21.85;;;;;;;12.22;62.59;100775.52;1763982;80;21223;-57
2021/04/01 03:15:43;;;;;;;32.53;22.32;;;;;;;12.26;62.58;100765.09;1766838;79;21215;-58
2021/04/01 03:18:13;;;;;;;28.80;20.97;;;;;;;12.30;62.48;100770.95;1798128;78;21227;-57
2021/04/01 03:20:41;;;;;;;40.95;23.07;;;;;;;12.28;62.39;100767.61;1803892;77;21088;-58
2021/04/01 03:23:08;;;;;;;36.65;22.58;;;;;;;12.25;62.36;100764.27;1780939;78;21216;-57
2021/04/01 03:25:36;;;;;;;37.08;22.85;;;;;;;12.20;62.44;100764.27;1779365;78;21167;-59
2021/04/01 03:28:05;;;;;;;32.38;22.55;;;;;;;12.14;62.54;100763.43;1745389;80;21194;-57
2021/04/01 03:30:34;;;;;;;34.27;22.40;;;;;;;12.08;62.62;100768.23;1768460;78;21180;-59
2021/04/01 03:33:03;;;;;;;32.20;21.80;;;;;;;12.05;62.67;100761.91;1762554;79;21204;-58
2021/04/01 03:35:30;;;;;;;34.20;22.45;;;;;;;12.00;62.79;100757.95;1787800;78;21210;-58
2021/04/01 03:38:02;;;;;;;37.40;22.30;;;;;;;11.98;62.86;100757.24;1782839;78;21627;-59
2021/04/01 03:40:27;;;;;;;34.85;22.60;;;;;;;11.94;62.96;100754.02;1785683;78;21199;-59
2021/04/01 03:42:55;;;;;;;32.23;20.97;;;;;;;11.95;62.94;100756.99;1744525;79;21206;-59
2021/04/01 03:45:23;;;;;;;38.25;23.60;;;;;;;12.05;62.82;100762.37;1762567;79;21157;-59
2021/04/01 03:47:52;;;;;;;32.73;22.95;;;;;;;12.15;62.67;100761.16;1787656;78;21990;-59
2021/04/01 03:50:20;;;;;;;34.00;21.55;;;;;;;12.20;62.55;100759.81;1792077;78;21139;-58
2021/04/01 03:52:49;;;;;;;30.52;22.25;;;;;;;12.21;62.57;100758.86;1771804;78;21171;-61
2021/04/01 03:58:05;;;;;;;43.75;25.00;;;;;;;12.29;62.23;100761.36;1685056;80;21179;-59
2021/04/01 04:00:31;;;;;;;39.15;23.35;;;;;;;12.26;62.12;100758.01;1786076;78;22716;-58
2021/04/01 04:03:10;;;;;;;34.60;24.30;;;;;;;12.25;62.24;100756.35;1780416;79;21578;-58
2021/04/01 04:05:39;;;;;;;30.75;22.70;;;;;;;12.22;62.21;100750.00;1759920;79;21177;-57
2021/04/01 04:08:17;;;;;;;32.73;22.82;;;;;;;12.17;62.25;100746.90;1790165;78;21161;-58
2021/04/01 04:15:35;;;;;;;37.83;25.02;;;;;;;12.06;62.57;100741.64;1784544;78;21219;-57
2021/04/01 04:18:04;;;;;;;37.58;22.50;;;;;;;12.04;62.65;100740.45;1789356;78;21215;-57
2021/04/01 04:20:31;;;;;;;32.88;21.57;;;;;;;12.08;62.62;100743.67;1805340;77;21148;-57
2021/04/01 04:22:59;;;;;;;32.53;21.80;;;;;;;12.20;62.52;100733.92;1782632;80;21160;-57
2021/04/01 04:25:27;;;;;;;33.02;21.25;;;;;;;12.29;62.40;100732.33;1760709;78;21257;-57
2021/04/01 04:30:24;;;;;;;36.33;24.37;;;;;;;12.36;62.24;100721.16;1796227;78;21181;-56
2021/04/01 04:32:51;;;;;;;37.78;23.80;;;;;;;12.38;62.28;100720.55;1764889;79;21191;-56
2021/04/01 04:35:20;;;;;;;33.00;21.87;;;;;;;12.39;62.12;100713.45;1818287;77;21210;-56
2021/04/01 04:37:49;;;;;;;41.25;21.27;;;;;;;12.39;62.11;100720.05;1769305;79;21492;-56
2021/04/01 04:40:18;;;;;;;33.00;22.02;;;;;;;12.36;62.14;100714.56;1783920;78;21187;-56
2021/04/01 04:42:46;;;;;;;35.85;23.00;;;;;;;12.32;62.28;100713.12;1811984;78;21583;-56
2021/04/01 04:45:14;;;;;;;33.20;21.62;;;;;;;12.30;62.39;100705.00;1751322;79;21445;-56
2021/04/01 04:47:41;;;;;;;35.88;23.27;;;;;;;12.28;62.45;100710.39;1813561;77;21237;-56
2021/04/01 04:50:10;;;;;;;31.62;20.37;;;;;;;12.24;62.53;100711.13;1799719;77;21378;-57
2021/04/01 04:52:39;;;;;;;29.65;19.80;;;;;;;12.23;62.62;100703.34;1808072;77;21670;-56
2021/04/01 04:55:11;;;;;;;31.07;20.57;;;;;;;12.24;62.55;100694.47;1812904;77;21132;-56
2021/04/01 04:57:54;;;;;;;36.25;22.02;;;;;;;12.32;62.38;100703.06;1812578;77;21193;-57
2021/04/01 05:05:54;;;;;;;32.70;20.92;;;;;;;12.31;62.40;100698.77;1803396;78;21202;-58
2021/04/01 05:08:22;;;;;;;32.80;21.27;;;;;;;12.25;62.19;100693.03;1805133;78;21164;-57
2021/04/01 05:10:51;;;;;;;32.80;21.27;;;;;;;12.19;62.12;100687.42;1776765;78;21133;-57
2021/04/01 05:13:18;;;;;;;44.60;21.95;;;;;;;12.12;62.26;100689.72;1787037;78;21164;-58
2021/04/01 05:15:49;;;;;;;27.45;21.33;;;;;;;12.05;62.38;100686.75;1756913;79;21203;-57
2021/04/01 05:18:24;;;;;;;34.90;22.50;;;;;;;12.03;62.46;100684.69;1802783;78;21195;-58
2021/04/01 05:20:52;;;;;;;36.15;20.77;;;;;;;11.99;62.58;100684.59;1811430;77;21126;-57
2021/04/01 05:23:27;;;;;;;27.93;19.85;;;;;;;11.96;62.75;100679.56;1806864;78;21207;-58
2021/04/01 05:26:14;;;;;;;30.12;20.20;;;;;;;11.99;62.72;100679.32;1801181;78;21164;-58
2021/04/01 05:28:32;;;;;;;32.73;21.40;;;;;;;12.12;62.63;100679.62;1782130;78;21235;-58
2021/04/01 05:30:58;;;;;;;29.05;19.50;;;;;;;12.19;62.46;100683.46;1779222;79;21206;-57
2021/04/01 05:33:33;;;;;;;31.12;19.45;;;;;;;12.20;62.43;100678.52;1809544;78;21165;-55
2021/04/01 05:35:55;;;;;;;33.00;20.70;;;;;;;12.22;62.44;100679.23;1782165;79;21211;-57
2021/04/01 05:38:23;;;;;;;31.27;18.75;;;;;;;12.23;62.45;100680.91;1814870;78;21482;-57
2021/04/01 05:40:51;;;;;;;32.10;20.82;;;;;;;12.24;62.47;100676.83;1802423;78;23109;-56
2021/04/01 05:43:22;;;;;;;33.33;21.05;;;;;;;12.26;62.32;100674.07;1777160;78;21180;-57
2021/04/01 05:45:52;;;;;;;27.48;19.90;;;;;;;12.27;62.34;100670.45;1774593;80;21177;-57
2021/04/01 05:48:34;;;;;;;29.02;18.40;;;;;;;12.29;62.21;100672.97;1779726;80;21185;-57
2021/04/01 05:51:27;;;;;;;30.72;20.48;;;;;;;12.26;62.32;100669.62;1780578;78;21469;-58
2021/04/01 05:59:24;;;;;;;;;;;;;;;12.48;62.20;100659.92;1775813;78;21158;-58
2021/04/01 06:06:57;;;;;;;31.00;17.85;;;;;;;12.68;62.07;100656.11;1799558;78;23213;-57
2021/04/01 06:09:28;;;;;;;27.17;17.77;;;;;;;12.71;61.90;100646.11;1769347;78;21199;-57
2021/04/01 06:11:56;;;;;;;27.85;17.80;;;;;;;12.78;61.83;100641.98;1770557;78;21215;-57
2021/04/01 06:14:39;;;;;;;29.30;18.27;;;;;;;12.88;61.56;100637.21;1771924;78;21077;-57
2021/04/01 06:19:48;;;;;;;30.68;17.02;;;;;;;13.15;61.14;100633.52;1879146;74;22562;-57
2021/04/01 06:22:17;;;;;;;26.42;15.85;;;;;;;13.25;61.00;100635.38;1840726;76;21606;-56
2021/04/01 06:24:45;;;;;;;26.77;15.55;;;;;;;13.36;60.50;100637.92;1844075;75;21197;-57
2021/04/01 06:32:42;;;;;;;19.30;13.15;;;;;;;13.76;59.32;100637.05;1847003;75;21186;-56
2021/04/01 06:41:02;;;;;;;19.92;14.53;;;;;;;14.13;58.53;100630.58;1785441;79;21210;-57
2021/04/01 06:43:58;;;;;;;24.25;15.03;;;;;;;14.41;57.43;100632.53;1796138;78;21376;-58
2021/04/01 06:46:30;;;;;;;22.52;15.28;;;;;;;14.34;57.35;100630.08;1800065;77;21514;-58
2021/04/01 06:49:25;;;;;;;25.35;15.25;;;;;;;14.28;57.67;100635.45;1798185;77;21512;-58
2021/04/01 06:54:37;;;;;;;23.45;16.23;;;;;;;14.27;57.80;100626.69;1878165;75;22773;-58
2021/04/01 06:57:33;;;;;;;20.30;13.95;;;;;;;14.27;57.79;100636.42;1730891;80;21698;-59
2021/04/01 07:00:17;;;;;;;20.37;13.83;;;;;;;14.24;57.54;100632.26;1771592;80;21778;-57
2021/04/01 07:03:02;;;;;;;24.25;14.25;;;;;;;14.18;57.62;100629.34;1775231;78;21215;-56
2021/04/01 07:08:06;;;;;;;20.90;13.55;;;;;;;14.10;58.03;100625.59;1830048;76;22794;-57
2021/04/01 07:13:29;;;;;;;25.15;16.45;;;;;;;14.11;57.85;100626.42;1748750;81;21207;-56
2021/04/01 07:16:03;;;;;;;25.20;15.93;;;;;;;14.08;57.85;100619.58;1774012;79;21175;-57
2021/04/01 07:46:32;;;;;;;20.25;13.70;;;;;;;14.71;57.33;100592.26;1715973;82;25150;-58
2021/04/01 08:05:36;;;;;;;19.07;14.23;;;;;;;15.38;56.53;100570.38;1834344;75;21198;-56
2021/04/01 08:21:16;;;;;;;26.75;13.35;;;;;;;15.69;56.00;100539.03;1857108;75;22746;-56
2021/04/01 08:23:51;;;;;;;21.27;14.03;;;;;;;15.75;55.77;100549.08;1794629;78;21170;-55
2021/04/01 08:29:28;;;;;;;20.35;14.38;;;;;;;16.06;55.02;100541.19;1877479;74;22838;-54
2021/04/01 08:31:56;;;;;;;19.80;13.55;;;;;;;16.12;54.83;100536.09;1807195;75;21119;-59
2021/04/01 08:36:49;;;;;;;21.70;13.43;;;;;;;16.31;54.63;100520.95;1844677;75;21242;-59
2021/04/01 08:39:21;;;;;;;19.80;13.53;;;;;;;16.42;54.17;100523.82;1812665;77;21190;-59
2021/04/01 08:42:21;;;;;;;19.50;13.75;;;;;;;16.53;53.91;100535.52;1808687;77;21123;-55
2021/04/01 08:45:31;;;;;;;20.00;13.13;;;;;;;16.62;53.78;100513.80;1810613;75;21194;-57
2021/04/01 08:48:53;;;;;;;21.40;13.88;;;;;;;16.70;53.63;100515.98;1845959;75;21209;-56
2021/04/01 08:52:03;;;;;;;17.87;12.68;;;;;;;16.79;53.73;100510.20;1818811;76;21662;-56
2021/04/01 08:55:03;;;;;;;25.55;14.35;;;;;;;16.86;53.24;100503.78;1847628;75;21206;-55
2021/04/01 08:57:39;;;;;;;22.15;13.88;;;;;;;16.92;53.20;100508.97;1824228;75;21504;-58
2021/04/01 09:00:15;;;;;;;19.60;14.03;;;;;;;16.97;52.80;100495.52;1841416;76;21193;-59
2021/04/01 09:02:51;;;;;;;22.35;15.00;;;;;;;17.04;52.80;100493.05;1841847;75;21317;-58
2021/04/01 09:05:19;;;;;;;19.55;13.88;;;;;;;17.12;52.60;100493.08;1814355;77;21199;-59
2021/04/01 09:08:00;;;;;;;25.95;13.22;;;;;;;17.22;52.56;100483.12;1811949;78;21159;-58
2021/04/01 09:10:37;;;;;;;18.80;13.13;;;;;;;17.32;52.31;100474.17;1787423;78;21180;-57
2021/04/01 09:15:49;;;;;;;19.98;14.90;;;;;;;17.56;51.73;100460.05;1782377;78;21203;-58
2021/04/01 09:18:27;;;;;;;21.75;14.35;;;;;;;17.71;51.39;100465.53;1783307;79;21661;-65
2021/04/01 09:21:00;;;;;;;21.70;15.15;;;;;;;17.83;51.27;100470.32;1809271;77;21575;-58
2021/04/01 09:23:36;;;;;;;24.10;14.85;;;;;;;17.98;50.92;100453.70;1809392;77;21183;-56
2021/04/01 09:26:06;;;;;;;21.50;14.13;;;;;;;18.08;51.04;100450.35;1810297;78;21112;-57
2021/04/01 09:28:38;;;;;;;25.57;15.78;;;;;;;18.22;50.63;100453.31;1761204;79;21207;-56
2021/04/01 09:31:06;;;;;;;22.17;15.05;;;;;;;18.33;50.19;100452.44;1770861;78;21211;-55
2021/04/01 09:33:36;;;;;;;22.62;14.43;;;;;;;18.44;49.74;100461.06;1774994;80;21160;-55
2021/04/01 09:36:13;;;;;;;30.80;16.02;;;;;;;18.45;49.72;100444.91;1768001;78;21168;-58
2021/04/01 09:38:44;;;;;;;28.57;14.13;;;;;;;18.49;49.78;100438.72;1767311;80;21104;-56
2021/04/01 09:41:30;;;;;;;20.92;14.50;;;;;;;18.57;49.77;100433.36;1771196;78;21262;-55
2021/04/01 09:44:05;;;;;;;24.15;13.50;;;;;;;18.66;49.31;100428.34;1772139;78;28414;-56
2021/04/01 09:46:36;;;;;;;18.48;13.45;;;;;;;18.72;49.32;100434.28;1744508;80;21604;-55
2021/04/01 09:49:06;;;;;;;17.20;12.30;;;;;;;18.75;48.54;100438.44;1772208;78;21689;-58
2021/04/01 09:51:34;;;;;;;18.10;12.93;;;;;;;18.73;48.48;100437.80;1765741;78;21199;-57
2021/04/01 09:54:02;;;;;;;18.67;13.60;;;;;;;18.73;48.71;100431.95;1741200;78;21168;-58
2021/04/01 09:56:32;;;;;;;18.30;11.93;;;;;;;18.74;48.18;100422.96;1748021;80;21205;-55
2021/04/01 09:59:00;;;;;;;16.20;12.23;;;;;;;18.79;47.71;100419.75;1764461;78;21219;-55
2021/04/01 10:04:17;;;;;;;18.50;12.55;;;;;;;18.92;47.78;100415.21;1769577;78;21205;-56
2021/04/01 10:06:49;;;;;;;17.15;11.22;;;;;;;18.98;47.87;100403.85;1733119;80;21220;-56
2021/04/01 10:09:23;;;;;;;17.32;12.18;;;;;;;19.00;47.09;100399.67;1777267;80;21718;-57
2021/04/01 10:12:00;;;;;;;17.95;12.00;;;;;;;18.94;47.63;100395.86;1745095;78;21770;-58
2021/04/01 10:14:29;;;;;;;17.85;11.65;;;;;;;18.93;47.73;100397.70;1770017;80;21187;-56
2021/04/01 10:17:06;;;;;;;18.73;12.90;;;;;;;18.96;47.09;100396.50;1763643;78;21139;-59
2021/04/01 10:19:40;;;;;;;16.57;12.60;;;;;;;18.95;47.02;100385.53;1767244;78;21277;-59
2021/04/01 10:22:28;;;;;;;18.90;12.28;;;;;;;18.97;46.67;100382.19;1768537;78;21715;-58
2021/04/01 10:30:23;;;;;;;18.98;12.03;;;;;;;19.30;46.77;100373.42;1772267;78;21201;-58
2021/04/01 10:32:54;;;;;;;21.12;11.83;;;;;;;19.49;46.09;100369.91;1751065;80;21176;-57
2021/04/01 10:35:24;;;;;;;15.88;12.07;;;;;;;19.65;45.65;100378.25;1750019;80;21219;-57
2021/04/01 10:37:57;;;;;;;18.50;11.30;;;;;;;19.75;44.42;100372.17;1736443;80;21164;-58
2021/04/01 10:40:24;;;;;;;17.95;12.18;;;;;;;19.76;44.20;100361.83;1774352;78;21183;-59
2021/04/01 10:43:06;;;;;;;17.75;11.68;;;;;;;19.78;43.70;100352.30;1783919;78;21146;-56
2021/04/01 10:45:40;;;;;;;16.73;11.95;;;;;;;19.84;44.07;100340.38;1770463;78;21219;-57
2021/04/01 10:48:33;;;;;;;18.95;12.68;;;;;;;19.95;43.98;100335.06;1770750;78;21235;-57
2021/04/01 10:51:07;;;;;;;16.75;11.95;;;;;;;20.07;42.89;100333.27;1749059;80;21118;-57
2021/04/01 10:53:33;;;;;;;18.45;11.33;;;;;;;20.14;42.28;100337.69;1781589;78;21749;-57
2021/04/01 10:56:04;;;;;;;15.08;11.28;;;;;;;20.16;42.56;100325.48;1783750;78;21144;-57
2021/04/01 10:58:32;;;;;;;16.20;11.70;;;;;;;20.22;42.34;100322.04;1753544;78;22184;-56
2021/04/01 11:01:03;;;;;;;18.32;11.03;;;;;;;20.26;41.90;100323.83;1780178;78;21154;-57
2021/04/01 11:03:48;;;;;;;16.80;10.20;;;;;;;20.26;41.27;100325.16;1775914;78;21131;-57
2021/04/01 11:06:15;;;;;;;16.77;11.25;;;;;;;20.21;41.96;100311.05;1767833;78;21597;-60
2021/04/01 11:08:44;;;;;;;16.95;11.63;;;;;;;20.24;41.94;100309.34;1769731;80;21197;-58
2021/04/01 11:11:12;;;;;;;13.88;10.88;;;;;;;20.24;41.00;100308.02;1781831;78;21566;-58
2021/04/01 11:13:43;;;;;;;17.07;10.35;;;;;;;20.20;41.43;100306.72;1776160;78;21212;-59
2021/04/01 11:16:12;;;;;;;15.63;10.65;;;;;;;20.23;41.81;100281.78;1747631;78;21243;-58
2021/04/01 11:18:47;;;;;;;14.13;10.95;;;;;;;20.29;41.71;100298.92;1775247;80;21118;-57
2021/04/01 11:21:15;;;;;;;14.93;10.72;;;;;;;20.30;41.28;100293.06;1777219;78;21162;-58
2021/04/01 11:23:43;;;;;;;13.62;10.15;;;;;;;20.26;40.52;100287.76;1743317;80;21231;-57
2021/04/01 11:26:10;;;;;;;13.78;9.78;;;;;;;20.26;40.08;100282.41;1774889;78;21109;-59
2021/04/01 11:28:49;;;;;;;15.13;10.70;;;;;;;20.28;39.75;100278.55;1748235;80;21666;-58
2021/04/01 11:31:25;;;;;;;15.58;11.05;;;;;;;20.36;40.25;100277.63;1744647;80;21136;-58
2021/04/01 11:33:54;;;;;;;15.58;11.25;;;;;;;20.43;40.23;100268.34;1746728;80;21222;-58
2021/04/01 11:36:24;;;;;;;18.55;12.40;;;;;;;20.43;40.77;100273.68;1776248;78;22096;-60
2021/04/01 11:39:00;;;;;;;16.57;11.90;;;;;;;20.40;40.26;100266.86;1772543;78;21224;-59
2021/04/01 11:41:29;;;;;;;13.28;10.50;;;;;;;20.42;40.05;100263.48;1773280;80;21239;-58
2021/04/01 11:43:58;;;;;;;14.25;9.40;;;;;;;20.46;40.23;100262.09;1737639;80;21215;-57
2021/04/01 11:46:31;;;;;;;14.95;9.68;;;;;;;20.54;40.12;100248.61;1772124;78;21160;-56
2021/04/01 11:49:00;;;;;;;14.25;10.20;;;;;;;20.64;40.04;100254.16;1752746;80;21202;-57
2021/04/01 11:51:32;;;;;;;15.45;11.48;;;;;;;20.70;39.59;100262.75;1776225;78;21192;-58
2021/04/01 11:53:59;;;;;;;18.05;13.40;;;;;;;20.69;39.07;100253.06;1770149;78;21139;-59
2021/04/01 11:56:41;;;;;;;18.95;12.13;;;;;;;20.65;38.98;100238.45;1745785;79;21183;-58
2021/04/01 11:59:14;;;;;;;15.98;11.65;;;;;;;20.64;39.27;100240.80;1777446;78;21169;-58
2021/04/01 12:01:57;;;;;;;24.77;11.55;;;;;;;20.75;39.00;100233.59;1767614;80;21491;-56
2021/04/01 12:04:26;;;;;;;15.10;11.18;;;;;;;20.86;38.62;100230.37;1771798;78;21204;-57
2021/04/01 12:06:54;;;;;;;17.37;12.18;;;;;;;20.97;38.46;100230.36;1781515;79;21175;-55
2021/04/01 12:09:22;;;;;;;15.70;11.60;;;;;;;21.03;38.82;100211.36;1752468;78;21202;-57
2021/04/01 12:11:49;;;;;;;19.42;13.10;;;;;;;21.10;38.75;100213.59;1764122;78;21618;-56
2021/04/01 12:14:18;;;;;;;15.28;11.25;;;;;;;21.07;38.84;100211.30;1764199;80;21211;-57
2021/04/01 12:16:46;;;;;;;13.78;10.03;;;;;;;21.00;38.79;100213.08;1774492;78;21217;-56
2021/04/01 12:19:14;;;;;;;16.60;11.20;;;;;;;20.90;38.92;100206.25;1765991;79;21177;-56
2021/04/01 12:21:42;;;;;;;15.43;11.70;;;;;;;20.80;39.00;100180.36;1769547;78;21542;-57
2021/04/01 12:24:10;;;;;;;15.93;10.78;;;;;;;20.81;39.04;100197.22;1742862;80;21653;-58
2021/04/01 12:26:49;;;;;;;13.08;10.03;;;;;;;20.89;39.35;100191.20;1745122;80;21639;-57
2021/04/01 12:29:17;;;;;;;14.00;9.55;;;;;;;21.05;38.36;100183.92;1765163;78;21214;-60
2021/04/01 12:31:51;;;;;;;10.93;7.75;;;;;;;21.19;37.77;100181.62;1730313;81;21199;-57
2021/04/01 12:34:31;;;;;;;12.70;8.83;;;;;;;21.30;36.68;100173.05;1754476;80;21190;-56
2021/04/01 12:37:04;;;;;;;16.12;9.55;;;;;;;21.40;36.67;100155.78;1758358;79;21238;-57
2021/04/01 12:39:35;;;;;;;14.80;9.20;;;;;;;21.58;36.70;100148.58;1749030;80;21390;-57
2021/04/01 12:42:04;;;;;;;11.68;7.72;;;;;;;21.73;37.03;100153.26;1756936;80;21634;-58
2021/04/01 12:44:41;;;;;;;13.90;8.88;;;;;;;21.85;36.82;100156.17;1749020;80;21264;-55
2021/04/01 12:47:14;;;;;;;13.22;8.50;;;;;;;22.02;36.66;100142.73;1750811;81;21191;-57
2021/04/01 12:49:43;;;;;;;13.20;10.20;;;;;;;22.22;36.14;100144.06;1722279;81;21218;-56
2021/04/01 12:52:12;;;;;;;14.65;9.68;;;;;;;22.45;35.73;100141.54;1751850;79;21215;-57
2021/04/01 12:54:42;;;;;;;14.05;10.20;;;;;;;22.55;35.63;100139.27;1721947;81;21258;-58
2021/04/01 12:57:14;;;;;;;15.45;9.05;;;;;;;22.61;35.58;100132.23;1755372;79;21201;-58
2021/04/01 12:59:49;;;;;;;15.15;9.55;;;;;;;22.62;35.54;100122.64;1755784;79;21254;-57
2021/04/01 13:02:21;;;;;;;12.58;7.53;;;;;;;22.62;35.26;100121.83;1760717;81;21184;-55
2021/04/01 13:05:06;;;;;;;14.00;8.85;;;;;;;22.57;35.05;100118.95;1748360;80;22272;-55
2021/04/01 13:10:30;;;;;;;13.65;9.58;;;;;;;22.46;34.88;100113.71;1749230;81;21709;-56
2021/04/01 13:12:30;;;;;;;13.05;8.98;;;;;;;22.49;35.04;100115.14;1739206;80;21626;-56
2021/04/01 13:14:59;;;;;;;11.50;9.15;;;;;;;22.52;34.99;100097.30;1769824;78;21211;-56
2021/04/01 13:17:28;;;;;;;12.15;9.38;;;;;;;22.53;34.70;100102.45;1741195;81;21537;-56
2021/04/01 13:19:57;;;;;;;13.58;9.60;;;;;;;22.58;34.42;100091.11;1744244;81;21132;-57
2021/04/01 13:22:28;;;;;;;14.45;8.75;;;;;;;22.60;34.28;100089.86;1729496;80;21195;-56
2021/04/01 13:25:08;;;;;;;10.72;8.25;;;;;;;22.58;34.69;100096.47;1745964;80;21198;-55
2021/04/01 13:27:24;;;;;;;12.63;8.78;;;;;;;22.51;34.40;100080.89;1751766;80;21267;-57
2021/04/01 13:29:55;;;;;;;13.20;9.90;;;;;;;22.37;34.60;100084.92;1761122;79;21420;-56
2021/04/01 13:35:18;;;;;;;14.65;8.05;;;;;;;22.22;34.65;100077.59;1742048;80;21235;-57
2021/04/01 13:37:47;;;;;;;11.53;8.18;;;;;;;22.21;34.41;100059.36;1771621;78;21243;-57